AirNav   MODERNIZE NOT PRIVATIZE ATC
 
 474 users online  

4FL0 Turkey Scratch Plantation Airport
Lamont, Florida, USA


FAA INFORMATION EFFECTIVE 20 JULY 2017

Location

FAA Identifier: 4FL0
Lat/Long: 30-24-13.0000N / 083-48-36.0000W
30-24.216667N / 083-48.600000W
30.4036111 / -83.8100000
(estimated)
Elevation: 115 ft. / 35 m (estimated)
Variation: 03W (1995)
From city: 2 miles S of LAMONT, FL
Time zone: UTC -4 (UTC -5 during Standard Time)
Zip code: 32344

Airport Operations

Airport use: Private use. Permission required prior to landing
Activation date: 03/1999
Control tower: no
ARTCC: JACKSONVILLE CENTER
FSS: GAINESVILLE FLIGHT SERVICE STATION
Attendance: UNATNDD
Segmented circle: no

Nearby radio navigation aids

VOR radial/distance  VOR name  Freq  Var
GEFr188/9.0GREENVILLE VORTAC109.0001E
SZWr105/30.6SEMINOLE VORTAC117.5002E
OTKr232/35.5VALDOSTA VOR/DME114.8002W

 
NDB name  Hdg/Dist  Freq  Var  ID
PATON184/33.224505WGTP --. - .--.
CAIDY152/34.233804WCYR -.-. -.-- .-.

Airport Services

Runway Information

Runway 18/36

Dimensions: 3000 x 75 ft. / 914 x 23 m
Surface: turf
RUNWAY 18  RUNWAY 36
Traffic pattern: leftleft
Displaced threshold: no1500 ft.
Obstructions: 100 ft. trees, 3000 ft. from runway45 ft. trees, 1000 ft. from runway

Airport Ownership and Management from official FAA records

Ownership: Privately-owned
Owner: RED HILLS LAND COMPANY
12501 BONITA AVE
GLYNDON, MD 21071
Phone 410-833-1220
Manager: FRANKLIN FOSTER
12501 BONITA AVE
GLYNDON, MD 21071
Phone 410-960-2956

Additional Remarks

PPR FOR LNDG.

Instrument Procedures

There are no published instrument procedures at 4FL0.

Some nearby airports with instrument procedures:

40J - Perry-Foley Airport (23 nm SE)
4J5 - Quitman Brooks County Airport (27 nm NE)
KTLH - Tallahassee International Airport (28 nm W)
KTVI - Thomasville Regional Airport (30 nm N)
70J - Cairo-Grady County Airport (34 nm NW)
 
Loc | Ops | Rwys | IFR | FBO | Links
Com | Nav | Svcs | Stats | Notes


 
Area around 4FL0 (Turkey Scratch Plantation Airport)
 
Road maps at: MapQuest Bing Google
 
Aerial photo
No photo
 
Sectional chart

 
Airport distance calculator
Flying to Turkey Scratch Plantation Airport? Find the distance to fly.

From to 4FL0

Sunrise and sunset
Times for 26-Jul-2017
 Local
(UTC-4)
 Zulu
(UTC)
Morning civil twilight06:2410:24
Sunrise06:5110:51
Sunset20:3300:33
Evening civil twilight20:5900:59

Current date and time
Zulu (UTC)  26-Jul-2017 10:38:27
Local (UTC-4)  26-Jul-2017 06:38:27
 
METAR
K40J 
24nm SE 
261015Z AUTO 00000KT 10SM CLR 23/23 A3009 RMK AO2 T02310225
KTLH 
28nm W 
260953Z 33003KT 3SM BR OVC002 24/24 A3007 RMK AO2 SLP182 T02390239
KTVI 
30nm N 
261015Z AUTO 00000KT 5SM BR BKN005 OVC010 24/24 A3009 RMK AO2
KVLD 
36nm NE 
260953Z AUTO 00000KT 7SM OVC008 23/23 A3007 RMK AO2 SLP189 T02330228
KMGR 
41nm N 
261015Z AUTO 00000KT 5SM BR BKN004 OVC008 24/23 A3009 RMK AO2
K24J 
41nm E 
261015Z AUTO 00000KT 5SM BR BKN031 BKN037 BKN043 22/23 A3009 RMK A01
KVAD 
46nm NE 
261022Z 29003KT 10SM OVC005 24/23 A3007 RMK AO2A SLP183
TAF
KTLH 
28nm W 
260952Z 2610/2706 33003KT 3SM BR SCT002 BKN007 TEMPO 2610/2613 00000KT 1/2SM FG VV002 FM261500 30004KT P6SM SCT015 FM262100 21008KT 6SM TSRA BKN030CB FM270000 18003KT P6SM SCT040 BKN250
NOTAMs
Click for the latest NOTAMs
NOTAMs are issued by the DoD/FAA and will open in a separate window not controlled by AirNav.

 

 
 

Would you like to see your business listed on this page?

 If your business provides an interesting product or service to pilots, flight crews, aircraft, or users of the Turkey Scratch Plantation Airport, you should consider listing it here.  To start the listing process, click on the button below
 
Add a business
 

Other Pages about Turkey Scratch Plantation Airport

Update a link
 
Copyright © AirNav, LLC. All rights reserved. Privacy Policy  Contact